sensor_id;sensor_type;location;lat;lon;timestamp;pressure;altitude;pressure_sealevel;temperature;humidity
71126;BME280;58785;55.566;38.058;2022-08-05T00:00:47;100820.53;;;21.42;72.81
71126;BME280;58785;55.566;38.058;2022-08-05T00:03:13;100829.97;;;21.46;72.80
71126;BME280;58785;55.566;38.058;2022-08-05T00:05:38;100825.59;;;21.45;72.84
71126;BME280;58785;55.566;38.058;2022-08-05T00:08:04;100816.38;;;21.40;72.92
71126;BME280;58785;55.566;38.058;2022-08-05T00:10:29;100829.97;;;21.46;72.60
71126;BME280;58785;55.566;38.058;2022-08-05T00:12:55;100832.91;;;21.45;72.63
71126;BME280;58785;55.566;38.058;2022-08-05T00:15:20;100824.94;;;21.43;72.89
71126;BME280;58785;55.566;38.058;2022-08-05T00:17:46;100821.63;;;21.48;72.58
71126;BME280;58785;55.566;38.058;2022-08-05T00:20:12;100827.25;;;21.46;72.80
71126;BME280;58785;55.566;38.058;2022-08-05T00:22:37;100824.09;;;21.43;72.82
71126;BME280;58785;55.566;38.058;2022-08-05T00:25:06;100828.31;;;21.45;72.89
71126;BME280;58785;55.566;38.058;2022-08-05T00:27:32;100826.44;;;21.46;72.58
71126;BME280;58785;55.566;38.058;2022-08-05T00:29:58;100826.84;;;21.49;72.88
71126;BME280;58785;55.566;38.058;2022-08-05T00:32:23;100830.81;;;21.47;72.54
71126;BME280;58785;55.566;38.058;2022-08-05T00:34:49;100827.69;;;21.50;72.65
71126;BME280;58785;55.566;38.058;2022-08-05T00:37:14;100830.59;;;21.48;72.66
71126;BME280;58785;55.566;38.058;2022-08-05T00:39:42;100833.53;;;21.47;72.86
71126;BME280;58785;55.566;38.058;2022-08-05T00:42:08;100826.81;;;21.43;72.75
71126;BME280;58785;55.566;38.058;2022-08-05T00:44:33;100824.94;;;21.43;72.58
71126;BME280;58785;55.566;38.058;2022-08-05T00:47:01;100832.63;;;21.40;72.78
71126;BME280;58785;55.566;38.058;2022-08-05T00:49:27;100832.63;;;21.40;72.73
71126;BME280;58785;55.566;38.058;2022-08-05T00:51:52;100819.28;;;21.38;72.87
71126;BME280;58785;55.566;38.058;2022-08-05T00:54:18;100814.66;;;21.32;73.02
71126;BME280;58785;55.566;38.058;2022-08-05T00:56:46;100818.84;;;21.35;73.05
71126;BME280;58785;55.566;38.058;2022-08-05T00:59:11;100826.13;;;21.34;72.92
71126;BME280;58785;55.566;38.058;2022-08-05T01:01:38;100822.78;;;21.32;72.86
71126;BME280;58785;55.566;38.058;2022-08-05T01:04:04;100822.16;;;21.30;72.41
71126;BME280;58785;55.566;38.058;2022-08-05T01:06:29;100818.19;;;21.33;72.39
71126;BME280;58785;55.566;38.058;2022-08-05T01:08:55;100815.69;;;21.31;72.72
71126;BME280;58785;55.566;38.058;2022-08-05T01:11:26;100816.97;;;21.35;72.84
71126;BME280;58785;55.566;38.058;2022-08-05T01:14:12;100815.94;;;21.36;72.98
71126;BME280;58785;55.566;38.058;2022-08-05T01:17:03;100815.09;;;21.36;72.85
71126;BME280;58785;55.566;38.058;2022-08-05T01:19:49;100820.91;;;21.33;72.49
71126;BME280;58785;55.566;38.058;2022-08-05T01:30:18;100828.06;;;21.40;71.94
71126;BME280;58785;55.566;38.058;2022-08-05T01:32:44;100832.91;;;21.45;71.83
71126;BME280;58785;55.566;38.058;2022-08-05T01:35:18;100829.31;;;21.44;72.27
71126;BME280;58785;55.566;38.058;2022-08-05T01:37:54;100825.13;;;21.42;72.31
71126;BME280;58785;55.566;38.058;2022-08-05T01:40:25;100817.19;;;21.40;72.04
71126;BME280;58785;55.566;38.058;2022-08-05T01:42:53;100819.94;;;21.47;71.97
71126;BME280;58785;55.566;38.058;2022-08-05T01:45:22;100829.56;;;21.49;72.09
71126;BME280;58785;55.566;38.058;2022-08-05T01:47:49;100825.81;;;21.50;72.26
71126;BME280;58785;55.566;38.058;2022-08-05T01:50:27;100832.53;;;21.55;71.77
71126;BME280;58785;55.566;38.058;2022-08-05T01:52:57;100820.81;;;21.54;71.45
71126;BME280;58785;55.566;38.058;2022-08-05T01:55:25;100831.91;;;21.59;71.38
71126;BME280;58785;55.566;38.058;2022-08-05T01:57:52;100820.41;;;21.57;71.26
71126;BME280;58785;55.566;38.058;2022-08-05T02:00:19;100815.19;;;21.56;71.32
71126;BME280;58785;55.566;38.058;2022-08-05T02:02:54;100823.13;;;21.57;71.65
71126;BME280;58785;55.566;38.058;2022-08-05T02:05:22;100833.56;;;21.60;71.42
71126;BME280;58785;55.566;38.058;2022-08-05T02:07:49;100840.47;;;21.63;71.41
71126;BME280;58785;55.566;38.058;2022-08-05T02:10:15;100827.09;;;21.61;71.39
71126;BME280;58785;55.566;38.058;2022-08-05T02:12:50;100839.44;;;21.64;71.33
71126;BME280;58785;55.566;38.058;2022-08-05T02:15:27;100841.13;;;21.65;71.03
71126;BME280;58785;55.566;38.058;2022-08-05T02:18:14;100843.63;;;21.66;71.38
71126;BME280;58785;55.566;38.058;2022-08-05T02:20:53;100847.19;;;21.67;71.26
71126;BME280;58785;55.566;38.058;2022-08-05T02:23:21;100847.56;;;21.64;71.37
71126;BME280;58785;55.566;38.058;2022-08-05T02:25:50;100850.13;;;21.65;71.25
71126;BME280;58785;55.566;38.058;2022-08-05T02:28:25;100850.28;;;21.64;71.28
71126;BME280;58785;55.566;38.058;2022-08-05T02:31:06;100848.41;;;21.64;71.54
71126;BME280;58785;55.566;38.058;2022-08-05T02:33:36;100850.94;;;21.66;71.64
71126;BME280;58785;55.566;38.058;2022-08-05T02:36:06;100847.56;;;21.64;71.57
71126;BME280;58785;55.566;38.058;2022-08-05T02:38:34;100853.66;;;21.66;71.32
71126;BME280;58785;55.566;38.058;2022-08-05T02:41:00;100855.34;;;21.67;71.04
71126;BME280;58785;55.566;38.058;2022-08-05T02:43:28;100862.22;;;21.69;71.33
71126;BME280;58785;55.566;38.058;2022-08-05T02:45:55;100869.34;;;21.70;71.18
71126;BME280;58785;55.566;38.058;2022-08-05T02:48:22;100876.22;;;21.73;71.29
71126;BME280;58785;55.566;38.058;2022-08-05T02:50:51;100876.88;;;21.75;71.52
71126;BME280;58785;55.566;38.058;2022-08-05T02:53:16;100880.44;;;21.75;71.33
71126;BME280;58785;55.566;38.058;2022-08-05T02:55:49;100879.41;;;21.76;71.25
71126;BME280;58785;55.566;38.058;2022-08-05T02:58:19;100876.03;;;21.74;70.87
71126;BME280;58785;55.566;38.058;2022-08-05T03:00:46;100885.03;;;21.75;70.88
71126;BME280;58785;55.566;38.058;2022-08-05T03:03:15;100888.38;;;21.77;70.94
71126;BME280;58785;55.566;38.058;2022-08-05T03:05:45;100890.06;;;21.78;71.07
71126;BME280;58785;55.566;38.058;2022-08-05T03:08:12;100893.81;;;21.84;70.92
71126;BME280;58785;55.566;38.058;2022-08-05T03:10:42;100894.88;;;21.83;70.81
71126;BME280;58785;55.566;38.058;2022-08-05T03:13:15;100895.69;;;21.83;70.93
71126;BME280;58785;55.566;38.058;2022-08-05T03:15:45;100895.06;;;21.81;70.73
71126;BME280;58785;55.566;38.058;2022-08-05T03:18:12;100903.84;;;21.83;71.01
71126;BME280;58785;55.566;38.058;2022-08-05T03:20:38;100891.31;;;21.82;71.00
71126;BME280;58785;55.566;38.058;2022-08-05T03:23:06;100890.72;;;21.87;70.92
71126;BME280;58785;55.566;38.058;2022-08-05T03:25:34;100897.63;;;21.89;70.73
71126;BME280;58785;55.566;38.058;2022-08-05T03:28:06;100902.63;;;21.92;70.42
71126;BME280;58785;55.566;38.058;2022-08-05T03:30:32;100899.72;;;21.94;70.35
71126;BME280;58785;55.566;38.058;2022-08-05T03:33:03;100900.75;;;21.93;70.58
71126;BME280;58785;55.566;38.058;2022-08-05T03:35:29;100900.13;;;21.91;70.44
71126;BME280;58785;55.566;38.058;2022-08-05T03:38:01;100909.75;;;21.93;70.00
71126;BME280;58785;55.566;38.058;2022-08-05T03:40:27;100900.38;;;21.96;70.16
71126;BME280;58785;55.566;38.058;2022-08-05T03:42:53;100898.91;;;22.00;69.84
71126;BME280;58785;55.566;38.058;2022-08-05T03:45:19;100903.94;;;22.03;69.30
71126;BME280;58785;55.566;38.058;2022-08-05T03:47:45;100903.94;;;22.03;69.40
71126;BME280;58785;55.566;38.058;2022-08-05T03:50:11;100917.78;;;22.08;69.12
71126;BME280;58785;55.566;38.058;2022-08-05T03:52:47;100920.09;;;22.11;68.99
71126;BME280;58785;55.566;38.058;2022-08-05T03:55:21;100921.75;;;22.12;68.83
71126;BME280;58785;55.566;38.058;2022-08-05T03:57:50;100926.59;;;22.17;68.71
71126;BME280;58785;55.566;38.058;2022-08-05T04:00:18;100921.16;;;22.17;68.45
71126;BME280;58785;55.566;38.058;2022-08-05T04:02:48;100921.38;;;22.22;68.74
71126;BME280;58785;55.566;38.058;2022-08-05T04:05:15;100924.72;;;22.24;68.27
71126;BME280;58785;55.566;38.058;2022-08-05T04:07:42;100933.53;;;22.26;68.14
71126;BME280;58785;55.566;38.058;2022-08-05T04:10:09;100929.97;;;22.25;68.35
71126;BME280;58785;55.566;38.058;2022-08-05T04:12:35;100929.56;;;22.28;68.16
71126;BME280;58785;55.566;38.058;2022-08-05T04:15:00;100919.31;;;22.30;67.83
71126;BME280;58785;55.566;38.058;2022-08-05T04:17:26;100922.47;;;22.34;68.06
71126;BME280;58785;55.566;38.058;2022-08-05T04:19:52;100925.84;;;22.43;67.70
71126;BME280;58785;55.566;38.058;2022-08-05T04:22:20;100925.84;;;22.43;67.62
71126;BME280;58785;55.566;38.058;2022-08-05T04:24:46;100929.41;;;22.50;67.24
71126;BME280;58785;55.566;38.058;2022-08-05T04:27:12;100927.78;;;22.55;67.40
71126;BME280;58785;55.566;38.058;2022-08-05T04:29:38;100921.06;;;22.58;67.28
71126;BME280;58785;55.566;38.058;2022-08-05T04:32:04;100929.22;;;22.64;67.20
71126;BME280;58785;55.566;38.058;2022-08-05T04:34:30;100933.44;;;22.67;66.97
71126;BME280;58785;55.566;38.058;2022-08-05T04:36:56;100926.53;;;22.71;66.94
71126;BME280;58785;55.566;38.058;2022-08-05T04:39:22;100928.84;;;22.81;66.95
71126;BME280;58785;55.566;38.058;2022-08-05T04:41:48;100930.56;;;22.88;66.76
71126;BME280;58785;55.566;38.058;2022-08-05T04:44:14;100935.34;;;22.93;66.37
71126;BME280;58785;55.566;38.058;2022-08-05T04:46:40;100922.19;;;22.97;66.32
71126;BME280;58785;55.566;38.058;2022-08-05T04:49:06;100921.34;;;23.03;66.43
71126;BME280;58785;55.566;38.058;2022-08-05T04:51:32;100925.75;;;23.10;65.95
71126;BME280;58785;55.566;38.058;2022-08-05T04:53:58;100930.34;;;23.23;66.04
71126;BME280;58785;55.566;38.058;2022-08-05T04:56:24;100924.91;;;23.30;66.08
71126;BME280;58785;55.566;38.058;2022-08-05T04:58:49;100922.59;;;23.40;65.62
71126;BME280;58785;55.566;38.058;2022-08-05T05:01:15;100927.19;;;23.46;65.62
71126;BME280;58785;55.566;38.058;2022-08-05T05:03:41;100920.47;;;23.48;65.50
71126;BME280;58785;55.566;38.058;2022-08-05T05:06:11;100928.84;;;23.60;65.50
71126;BME280;58785;55.566;38.058;2022-08-05T05:08:37;100926.75;;;23.69;65.22
71126;BME280;58785;55.566;38.058;2022-08-05T05:11:03;100934.47;;;23.78;64.69
71126;BME280;58785;55.566;38.058;2022-08-05T05:13:29;100930.25;;;23.89;64.68
71126;BME280;58785;55.566;38.058;2022-08-05T05:15:55;100933.97;;;24.01;64.38
71126;BME280;58785;55.566;38.058;2022-08-05T05:18:22;100933.91;;;24.15;63.97
71126;BME280;58785;55.566;38.058;2022-08-05T05:20:47;100933.63;;;24.29;63.71
71126;BME280;58785;55.566;38.058;2022-08-05T05:23:13;100937.34;;;24.48;63.57
71126;BME280;58785;55.566;38.058;2022-08-05T05:25:43;100934.75;;;24.60;63.04
71126;BME280;58785;55.566;38.058;2022-08-05T05:28:10;100942.00;;;24.73;62.71
71126;BME280;58785;55.566;38.058;2022-08-05T05:30:37;100939.47;;;24.78;62.70
71126;BME280;58785;55.566;38.058;2022-08-05T05:33:04;100933.75;;;24.86;62.28
71126;BME280;58785;55.566;38.058;2022-08-05T05:35:31;100934.09;;;24.96;62.54
71126;BME280;58785;55.566;38.058;2022-08-05T05:37:58;100937.63;;;25.03;62.66
71126;BME280;58785;55.566;38.058;2022-08-05T05:40:31;100932.06;;;25.16;61.98
71126;BME280;58785;55.566;38.058;2022-08-05T05:42:57;100933.16;;;25.34;61.73
71126;BME280;58785;55.566;38.058;2022-08-05T05:45:23;100930.75;;;25.44;60.89
71126;BME280;58785;55.566;38.058;2022-08-05T05:47:50;100930.16;;;25.60;60.98
71126;BME280;58785;55.566;38.058;2022-08-05T05:50:17;100938.69;;;25.70;60.51
71126;BME280;58785;55.566;38.058;2022-08-05T05:52:43;100941.38;;;25.77;60.38
71126;BME280;58785;55.566;38.058;2022-08-05T05:55:10;100933.41;;;25.75;60.48
71126;BME280;58785;55.566;38.058;2022-08-05T05:57:37;100948.28;;;25.79;60.03
71126;BME280;58785;55.566;38.058;2022-08-05T06:00:04;100940.13;;;25.73;60.27
71126;BME280;58785;55.566;38.058;2022-08-05T06:02:30;100943.88;;;25.78;60.04
71126;BME280;58785;55.566;38.058;2022-08-05T06:04:56;100934.06;;;25.89;59.84
71126;BME280;58785;55.566;38.058;2022-08-05T06:07:22;100940.22;;;26.03;59.22
71126;BME280;58785;55.566;38.058;2022-08-05T06:09:47;100939.91;;;26.11;58.92
71126;BME280;58785;55.566;38.058;2022-08-05T06:12:13;100937.81;;;26.25;58.62
71126;BME280;58785;55.566;38.058;2022-08-05T06:14:38;100937.59;;;26.45;58.12
71126;BME280;58785;55.566;38.058;2022-08-05T06:17:06;100939.94;;;26.71;57.63
71126;BME280;58785;55.566;38.058;2022-08-05T06:19:32;100941.97;;;27.06;56.95
71126;BME280;58785;55.566;38.058;2022-08-05T06:21:58;100949.72;;;27.32;56.68
71126;BME280;58785;55.566;38.058;2022-08-05T06:24:23;100941.88;;;27.47;55.42
71126;BME280;58785;55.566;38.058;2022-08-05T06:26:49;100943.88;;;27.75;55.45
71126;BME280;58785;55.566;38.058;2022-08-05T06:29:14;100937.03;;;28.13;54.82
71126;BME280;58785;55.566;38.058;2022-08-05T06:31:40;100948.34;;;28.57;54.39
71126;BME280;58785;55.566;38.058;2022-08-05T06:34:08;100939.72;;;28.82;54.17
71126;BME280;58785;55.566;38.058;2022-08-05T06:36:33;100942.53;;;28.99;52.93
71126;BME280;58785;55.566;38.058;2022-08-05T06:38:59;100938.19;;;29.19;53.46
71126;BME280;58785;55.566;38.058;2022-08-05T06:41:24;100932.19;;;29.39;52.39
71126;BME280;58785;55.566;38.058;2022-08-05T06:43:50;100934.91;;;29.56;51.95
71126;BME280;58785;55.566;38.058;2022-08-05T06:46:15;100932.09;;;29.68;51.67
71126;BME280;58785;55.566;38.058;2022-08-05T06:48:41;100937.13;;;29.76;50.83
71126;BME280;58785;55.566;38.058;2022-08-05T06:51:06;100944.09;;;29.84;50.73
71126;BME280;58785;55.566;38.058;2022-08-05T06:53:32;100938.72;;;29.94;50.38
71126;BME280;58785;55.566;38.058;2022-08-05T06:55:59;100948.06;;;30.10;50.40
71126;BME280;58785;55.566;38.058;2022-08-05T06:58:26;100938.81;;;30.21;50.02
71126;BME280;58785;55.566;38.058;2022-08-05T07:00:51;100946.06;;;30.27;49.50
71126;BME280;58785;55.566;38.058;2022-08-05T07:03:17;100948.28;;;30.30;49.30
71126;BME280;58785;55.566;38.058;2022-08-05T07:05:43;100952.13;;;30.29;49.16
71126;BME280;58785;55.566;38.058;2022-08-05T07:08:09;100936.72;;;30.28;49.49
71126;BME280;58785;55.566;38.058;2022-08-05T07:10:35;100949.63;;;30.49;50.18
71126;BME280;58785;55.566;38.058;2022-08-05T07:13:00;100950.09;;;30.46;49.66
71126;BME280;58785;55.566;38.058;2022-08-05T07:15:44;100950.00;;;30.36;49.85
71126;BME280;58785;55.566;38.058;2022-08-05T07:18:29;100948.66;;;30.39;49.14
71126;BME280;58785;55.566;38.058;2022-08-05T07:20:54;100947.00;;;30.38;48.91
71126;BME280;58785;55.566;38.058;2022-08-05T07:23:20;100949.03;;;30.47;48.65
71126;BME280;58785;55.566;38.058;2022-08-05T07:25:46;100938.06;;;30.52;48.40
71126;BME280;58785;55.566;38.058;2022-08-05T07:28:12;100943.88;;;30.56;49.01
71126;BME280;58785;55.566;38.058;2022-08-05T07:30:38;100942.94;;;30.45;48.65
71126;BME280;58785;55.566;38.058;2022-08-05T07:33:04;100946.03;;;30.49;48.42
71126;BME280;58785;55.566;38.058;2022-08-05T07:35:30;100939.47;;;30.55;48.81
71126;BME280;58785;55.566;38.058;2022-08-05T07:37:56;100933.50;;;30.63;48.68
71126;BME280;58785;55.566;38.058;2022-08-05T07:40:22;100937.00;;;30.80;48.01
71126;BME280;58785;55.566;38.058;2022-08-05T07:42:48;100936.22;;;30.85;47.27
71126;BME280;58785;55.566;38.058;2022-08-05T07:45:14;100937.28;;;30.79;47.49
71126;BME280;58785;55.566;38.058;2022-08-05T07:47:41;100918.81;;;30.79;47.05
71126;BME280;58785;55.566;38.058;2022-08-05T07:50:07;100926.09;;;30.96;46.47
71126;BME280;58785;55.566;38.058;2022-08-05T07:52:40;100918.47;;;31.03;46.48
71126;BME280;58785;55.566;38.058;2022-08-05T07:55:06;100929.03;;;31.16;45.43
71126;BME280;58785;55.566;38.058;2022-08-05T07:57:32;100921.06;;;31.19;45.03
71126;BME280;58785;55.566;38.058;2022-08-05T07:59:58;100923.38;;;31.28;45.43
71126;BME280;58785;55.566;38.058;2022-08-05T08:02:25;100918.75;;;31.38;45.63
71126;BME280;58785;55.566;38.058;2022-08-05T08:04:51;100917.16;;;31.48;45.14
71126;BME280;58785;55.566;38.058;2022-08-05T08:07:17;100919.34;;;31.45;44.63
71126;BME280;58785;55.566;38.058;2022-08-05T08:09:44;100919.59;;;31.39;43.84
71126;BME280;58785;55.566;38.058;2022-08-05T08:12:10;100914.28;;;31.32;43.14
71126;BME280;58785;55.566;38.058;2022-08-05T08:14:39;100916.44;;;31.20;43.57
71126;BME280;58785;55.566;38.058;2022-08-05T08:17:05;100908.72;;;31.22;43.43
71126;BME280;58785;55.566;38.058;2022-08-05T08:19:42;100902.97;;;31.29;43.66
71126;BME280;58785;55.566;38.058;2022-08-05T08:22:08;100900.25;;;31.34;43.61
71126;BME280;58785;55.566;38.058;2022-08-05T08:24:34;100901.06;;;31.34;43.72
71126;BME280;58785;55.566;38.058;2022-08-05T08:27:01;100902.50;;;31.37;43.25
71126;BME280;58785;55.566;38.058;2022-08-05T08:29:27;100911.59;;;31.42;43.35
71126;BME280;58785;55.566;38.058;2022-08-05T08:31:53;100906.41;;;31.51;42.67
71126;BME280;58785;55.566;38.058;2022-08-05T08:34:20;100907.25;;;31.52;42.06
71126;BME280;58785;55.566;38.058;2022-08-05T08:36:46;100911.38;;;31.54;42.06
71126;BME280;58785;55.566;38.058;2022-08-05T08:39:12;100901.50;;;31.58;41.75
71126;BME280;58785;55.566;38.058;2022-08-05T08:41:40;100903.72;;;31.61;41.59
71126;BME280;58785;55.566;38.058;2022-08-05T08:44:11;100903.38;;;31.53;41.78
71126;BME280;58785;55.566;38.058;2022-08-05T08:46:38;100900.63;;;31.53;41.99
71126;BME280;58785;55.566;38.058;2022-08-05T08:49:05;100898.41;;;31.50;41.73
71126;BME280;58785;55.566;38.058;2022-08-05T08:51:33;100898.97;;;31.52;42.07
71126;BME280;58785;55.566;38.058;2022-08-05T08:53:59;100900.63;;;31.53;41.81
71126;BME280;58785;55.566;38.058;2022-08-05T08:56:26;100888.22;;;31.50;41.43
71126;BME280;58785;55.566;38.058;2022-08-05T08:58:53;100892.03;;;31.44;41.49
71126;BME280;58785;55.566;38.058;2022-08-05T09:01:19;100893.34;;;31.36;41.03
71126;BME280;58785;55.566;38.058;2022-08-05T09:03:50;100894.16;;;31.32;40.83
71126;BME280;58785;55.566;38.058;2022-08-05T09:06:16;100883.41;;;31.30;41.64
71126;BME280;58785;55.566;38.058;2022-08-05T09:08:42;100880.13;;;31.33;41.57
71126;BME280;58785;55.566;38.058;2022-08-05T09:11:08;100877.16;;;31.45;41.91
71126;BME280;58785;55.566;38.058;2022-08-05T09:13:35;100885.19;;;31.52;41.52
71126;BME280;58785;55.566;38.058;2022-08-05T09:16:02;100882.31;;;31.36;41.51
71126;BME280;58785;55.566;38.058;2022-08-05T09:18:28;100885.06;;;31.31;40.47
71126;BME280;58785;55.566;38.058;2022-08-05T09:20:54;100879.28;;;31.33;41.05
71126;BME280;58785;55.566;38.058;2022-08-05T09:23:20;100880.44;;;31.37;40.83
71126;BME280;58785;55.566;38.058;2022-08-05T09:25:48;100875.75;;;31.42;40.88
71126;BME280;58785;55.566;38.058;2022-08-05T09:28:16;100869.19;;;31.54;40.27
71126;BME280;58785;55.566;38.058;2022-08-05T09:31:06;100867.88;;;31.61;40.06
71126;BME280;58785;55.566;38.058;2022-08-05T09:33:46;100860.16;;;31.63;39.80
71126;BME280;58785;55.566;38.058;2022-08-05T09:36:13;100850.25;;;31.67;39.52
71126;BME280;58785;55.566;38.058;2022-08-05T09:38:54;100861.56;;;31.71;39.60
71126;BME280;58785;55.566;38.058;2022-08-05T09:41:21;100853.28;;;31.71;39.57
71126;BME280;58785;55.566;38.058;2022-08-05T09:43:46;100845.84;;;31.71;39.44
71126;BME280;58785;55.566;38.058;2022-08-05T09:46:31;100859.88;;;31.65;39.25
71126;BME280;58785;55.566;38.058;2022-08-05T09:48:58;100850.50;;;31.61;39.52
71126;BME280;58785;55.566;38.058;2022-08-05T09:51:36;100855.72;;;31.62;39.84
71126;BME280;58785;55.566;38.058;2022-08-05T09:54:04;100853.81;;;31.63;38.95
71126;BME280;58785;55.566;38.058;2022-08-05T09:56:34;100852.69;;;31.64;38.45
71126;BME280;58785;55.566;38.058;2022-08-05T09:59:08;100854.34;;;31.65;38.49
71126;BME280;58785;55.566;38.058;2022-08-05T10:01:35;100841.16;;;31.72;38.59
71126;BME280;58785;55.566;38.058;2022-08-05T10:04:07;100839.84;;;31.80;38.40
71126;BME280;58785;55.566;38.058;2022-08-05T10:06:35;100840.13;;;31.83;38.59
71126;BME280;58785;55.566;38.058;2022-08-05T10:09:17;100832.94;;;31.82;38.92
71126;BME280;58785;55.566;38.058;2022-08-05T10:11:43;100831.88;;;31.88;38.96
71126;BME280;58785;55.566;38.058;2022-08-05T10:14:24;100840.69;;;31.95;38.66
71126;BME280;58785;55.566;38.058;2022-08-05T10:16:50;100839.06;;;31.89;38.58
71126;BME280;58785;55.566;38.058;2022-08-05T10:19:17;100844.00;;;31.87;38.33
71126;BME280;58785;55.566;38.058;2022-08-05T10:21:43;100842.91;;;31.88;38.63
71126;BME280;58785;55.566;38.058;2022-08-05T10:24:12;100834.09;;;31.91;38.78
71126;BME280;58785;55.566;38.058;2022-08-05T10:26:40;100837.41;;;31.93;38.04
71126;BME280;58785;55.566;38.058;2022-08-05T10:29:06;100848.47;;;31.98;37.42
71126;BME280;58785;55.566;38.058;2022-08-05T10:31:32;100844.03;;;31.97;37.61
71126;BME280;58785;55.566;38.058;2022-08-05T10:33:58;100841.56;;;32.01;37.58
71126;BME280;58785;55.566;38.058;2022-08-05T10:36:24;100843.22;;;32.02;37.25
71126;BME280;58785;55.566;38.058;2022-08-05T10:38:51;100836.88;;;32.01;37.52
71126;BME280;58785;55.566;38.058;2022-08-05T10:41:28;100834.97;;;32.07;37.71
71126;BME280;58785;55.566;38.058;2022-08-05T10:44:02;100835.50;;;31.99;37.25
71126;BME280;58785;55.566;38.058;2022-08-05T10:49:15;100832.44;;;31.33;37.57
71126;BME280;58785;55.566;38.058;2022-08-05T10:51:52;100834.13;;;30.97;37.34
71126;BME280;58785;55.566;38.058;2022-08-05T10:54:23;100836.69;;;30.76;38.41
71126;BME280;58785;55.566;38.058;2022-08-05T10:56:51;100831.81;;;30.56;38.31
71126;BME280;58785;55.566;38.058;2022-08-05T10:59:23;100829.22;;;30.40;38.59
71126;BME280;58785;55.566;38.058;2022-08-05T11:02:13;100831.34;;;30.32;38.44
71126;BME280;58785;55.566;38.058;2022-08-05T11:07:09;100825.94;;;30.43;38.67
71126;BME280;58785;55.566;38.058;2022-08-05T11:09:42;100823.28;;;30.53;38.08
71126;BME280;58785;55.566;38.058;2022-08-05T11:15:07;100815.91;;;30.96;38.41
71126;BME280;58785;55.566;38.058;2022-08-05T11:17:36;100826.22;;;31.10;38.17
71126;BME280;58785;55.566;38.058;2022-08-05T11:20:07;100821.31;;;31.17;38.22
71126;BME280;58785;55.566;38.058;2022-08-05T11:22:52;100809.78;;;31.21;38.30
71126;BME280;58785;55.566;38.058;2022-08-05T11:33:25;100814.50;;;31.30;37.78
71126;BME280;58785;55.566;38.058;2022-08-05T11:35:55;100807.66;;;31.38;38.12
71126;BME280;58785;55.566;38.058;2022-08-05T11:41:15;100811.28;;;31.54;37.61
71126;BME280;58785;55.566;38.058;2022-08-05T11:43:52;100791.16;;;31.53;37.92
71126;BME280;58785;55.566;38.058;2022-08-05T11:46:44;100798.66;;;31.58;37.57
71126;BME280;58785;55.566;38.058;2022-08-05T11:49:12;100804.69;;;31.55;37.29
71126;BME280;58785;55.566;38.058;2022-08-05T11:51:41;100808.50;;;31.43;37.28
71126;BME280;58785;55.566;38.058;2022-08-05T11:54:07;100815.38;;;31.41;37.59
71126;BME280;58785;55.566;38.058;2022-08-05T11:59:26;100810.69;;;31.41;37.59
71126;BME280;58785;55.566;38.058;2022-08-05T12:02:03;100807.94;;;31.41;37.08
71126;BME280;58785;55.566;38.058;2022-08-05T12:04:45;100816.75;;;31.38;38.67
71126;BME280;58785;55.566;38.058;2022-08-05T12:07:16;100817.59;;;31.39;37.53
71126;BME280;58785;55.566;38.058;2022-08-05T12:12:10;100812.34;;;31.37;37.37
71126;BME280;58785;55.566;38.058;2022-08-05T12:14:40;100814.50;;;31.35;36.32
71126;BME280;58785;55.566;38.058;2022-08-05T12:17:10;100799.91;;;31.35;36.61
71126;BME280;58785;55.566;38.058;2022-08-05T12:19:44;100799.41;;;31.43;36.94
71126;BME280;58785;55.566;38.058;2022-08-05T12:22:10;100785.88;;;31.46;36.77
71126;BME280;58785;55.566;38.058;2022-08-05T12:24:42;100790.06;;;31.54;36.16
71126;BME280;58785;55.566;38.058;2022-08-05T12:27:07;100783.16;;;31.52;36.45
71126;BME280;58785;55.566;38.058;2022-08-05T12:29:33;100795.63;;;31.59;37.18
71126;BME280;58785;55.566;38.058;2022-08-05T12:32:00;100784.59;;;31.64;37.12
71126;BME280;58785;55.566;38.058;2022-08-05T12:34:29;100792.06;;;31.69;36.61
71126;BME280;58785;55.566;38.058;2022-08-05T12:37:15;100787.66;;;31.73;36.22
71126;BME280;58785;55.566;38.058;2022-08-05T12:39:41;100790.41;;;31.73;35.91
71126;BME280;58785;55.566;38.058;2022-08-05T12:42:11;100785.44;;;31.70;35.65
71126;BME280;58785;55.566;38.058;2022-08-05T12:44:38;100783.22;;;31.67;35.58
71126;BME280;58785;55.566;38.058;2022-08-05T12:47:07;100786.25;;;31.65;35.38
71126;BME280;58785;55.566;38.058;2022-08-05T12:49:44;100778.25;;;31.59;36.03
71126;BME280;58785;55.566;38.058;2022-08-05T12:52:14;100785.88;;;31.46;35.61
71126;BME280;58785;55.566;38.058;2022-08-05T12:54:41;100793.00;;;31.27;36.04
71126;BME280;58785;55.566;38.058;2022-08-05T12:57:08;100784.88;;;31.10;36.30
71126;BME280;58785;55.566;38.058;2022-08-05T12:59:52;100783.16;;;30.99;36.53
71126;BME280;58785;55.566;38.058;2022-08-05T13:02:20;100790.03;;;30.97;36.37
71126;BME280;58785;55.566;38.058;2022-08-05T13:04:47;100783.38;;;30.87;36.93
71126;BME280;58785;55.566;38.058;2022-08-05T13:07:19;100779.38;;;30.68;37.04
71126;BME280;58785;55.566;38.058;2022-08-05T13:09:52;100789.69;;;30.56;37.58
71126;BME280;58785;55.566;38.058;2022-08-05T13:12:20;100784.34;;;30.39;37.46
71126;BME280;58785;55.566;38.058;2022-08-05T13:14:51;100785.94;;;30.30;37.71
71126;BME280;58785;55.566;38.058;2022-08-05T13:17:25;100783.09;;;30.20;38.31
71126;BME280;58785;55.566;38.058;2022-08-05T13:20:14;100776.28;;;30.05;38.54